sensor_id;sensor_type;location;lat;lon;timestamp;P1;durP1;ratioP1;P2;durP2;ratioP2
41739;SDS011;27422;52.444;13.300;2023-03-22T00:00:47;15.57;;;8.90;;
41739;SDS011;27422;52.444;13.300;2023-03-22T00:03:13;16.55;;;9.15;;
41739;SDS011;27422;52.444;13.300;2023-03-22T00:05:39;17.55;;;9.60;;
41739;SDS011;27422;52.444;13.300;2023-03-22T00:08:04;15.48;;;9.18;;
41739;SDS011;27422;52.444;13.300;2023-03-22T00:10:31;18.42;;;8.93;;
41739;SDS011;27422;52.444;13.300;2023-03-22T00:12:57;15.02;;;8.77;;
41739;SDS011;27422;52.444;13.300;2023-03-22T00:15:23;20.50;;;9.18;;
41739;SDS011;27422;52.444;13.300;2023-03-22T00:17:48;17.50;;;9.43;;
41739;SDS011;27422;52.444;13.300;2023-03-22T00:20:16;20.15;;;8.65;;
41739;SDS011;27422;52.444;13.300;2023-03-22T00:22:44;15.85;;;8.20;;
41739;SDS011;27422;52.444;13.300;2023-03-22T00:25:09;17.80;;;8.65;;
41739;SDS011;27422;52.444;13.300;2023-03-22T00:27:35;15.82;;;8.43;;
41739;SDS011;27422;52.444;13.300;2023-03-22T00:30:00;17.15;;;9.82;;
41739;SDS011;27422;52.444;13.300;2023-03-22T00:32:26;20.58;;;9.30;;
41739;SDS011;27422;52.444;13.300;2023-03-22T00:34:53;17.58;;;9.32;;
41739;SDS011;27422;52.444;13.300;2023-03-22T00:37:18;17.13;;;10.20;;
41739;SDS011;27422;52.444;13.300;2023-03-22T00:39:44;20.52;;;9.23;;
41739;SDS011;27422;52.444;13.300;2023-03-22T00:42:09;19.52;;;9.98;;
41739;SDS011;27422;52.444;13.300;2023-03-22T00:44:35;16.45;;;8.68;;
41739;SDS011;27422;52.444;13.300;2023-03-22T00:47:00;18.20;;;9.57;;
41739;SDS011;27422;52.444;13.300;2023-03-22T00:49:27;22.10;;;9.63;;
41739;SDS011;27422;52.444;13.300;2023-03-22T00:51:54;19.00;;;9.35;;
41739;SDS011;27422;52.444;13.300;2023-03-22T00:54:19;17.35;;;8.98;;
41739;SDS011;27422;52.444;13.300;2023-03-22T00:56:45;17.52;;;8.95;;
41739;SDS011;27422;52.444;13.300;2023-03-22T00:59:11;19.63;;;9.38;;
41739;SDS011;27422;52.444;13.300;2023-03-22T01:01:37;20.23;;;9.80;;
41739;SDS011;27422;52.444;13.300;2023-03-22T01:04:03;18.27;;;9.68;;
41739;SDS011;27422;52.444;13.300;2023-03-22T01:06:29;16.17;;;9.25;;
41739;SDS011;27422;52.444;13.300;2023-03-22T01:08:56;18.92;;;10.18;;
41739;SDS011;27422;52.444;13.300;2023-03-22T01:11:22;16.50;;;9.38;;
41739;SDS011;27422;52.444;13.300;2023-03-22T01:13:48;17.88;;;9.52;;
41739;SDS011;27422;52.444;13.300;2023-03-22T01:16:13;16.67;;;9.68;;
41739;SDS011;27422;52.444;13.300;2023-03-22T01:18:39;19.17;;;10.40;;
41739;SDS011;27422;52.444;13.300;2023-03-22T01:21:04;16.42;;;9.55;;
41739;SDS011;27422;52.444;13.300;2023-03-22T01:23:30;16.83;;;9.10;;
41739;SDS011;27422;52.444;13.300;2023-03-22T01:25:56;21.90;;;10.25;;
41739;SDS011;27422;52.444;13.300;2023-03-22T01:28:21;15.05;;;9.32;;
41739;SDS011;27422;52.444;13.300;2023-03-22T01:30:46;17.65;;;9.27;;
41739;SDS011;27422;52.444;13.300;2023-03-22T01:33:12;16.17;;;8.65;;
41739;SDS011;27422;52.444;13.300;2023-03-22T01:35:37;18.05;;;9.80;;
41739;SDS011;27422;52.444;13.300;2023-03-22T01:38:03;14.90;;;9.10;;
41739;SDS011;27422;52.444;13.300;2023-03-22T01:40:28;17.52;;;8.85;;
41739;SDS011;27422;52.444;13.300;2023-03-22T01:42:54;21.25;;;10.07;;
41739;SDS011;27422;52.444;13.300;2023-03-22T01:45:33;19.50;;;10.23;;
41739;SDS011;27422;52.444;13.300;2023-03-22T01:48:06;17.67;;;9.60;;
41739;SDS011;27422;52.444;13.300;2023-03-22T01:50:34;17.23;;;9.35;;
41739;SDS011;27422;52.444;13.300;2023-03-22T01:53:01;20.08;;;9.55;;
41739;SDS011;27422;52.444;13.300;2023-03-22T01:57:54;18.98;;;8.85;;
41739;SDS011;27422;52.444;13.300;2023-03-22T02:00:19;16.25;;;9.10;;
41739;SDS011;27422;52.444;13.300;2023-03-22T02:02:47;18.98;;;10.02;;
41739;SDS011;27422;52.444;13.300;2023-03-22T02:05:13;17.50;;;9.63;;
41739;SDS011;27422;52.444;13.300;2023-03-22T02:07:39;16.92;;;9.63;;
41739;SDS011;27422;52.444;13.300;2023-03-22T02:20:59;15.02;;;8.98;;
41739;SDS011;27422;52.444;13.300;2023-03-22T02:23:43;18.08;;;9.38;;
41739;SDS011;27422;52.444;13.300;2023-03-22T02:34:59;18.10;;;8.80;;
41739;SDS011;27422;52.444;13.300;2023-03-22T02:49:18;17.58;;;8.88;;
41739;SDS011;27422;52.444;13.300;2023-03-22T02:51:50;16.75;;;8.90;;
41739;SDS011;27422;52.444;13.300;2023-03-22T02:54:24;19.77;;;9.27;;
41739;SDS011;27422;52.444;13.300;2023-03-22T02:57:14;16.83;;;9.38;;
41739;SDS011;27422;52.444;13.300;2023-03-22T02:59:44;15.32;;;9.15;;
41739;SDS011;27422;52.444;13.300;2023-03-22T03:02:10;16.05;;;9.10;;
41739;SDS011;27422;52.444;13.300;2023-03-22T03:04:42;19.10;;;9.63;;
41739;SDS011;27422;52.444;13.300;2023-03-22T03:07:10;13.90;;;8.48;;
41739;SDS011;27422;52.444;13.300;2023-03-22T03:09:38;16.88;;;9.68;;
41739;SDS011;27422;52.444;13.300;2023-03-22T03:12:08;17.48;;;9.35;;
41739;SDS011;27422;52.444;13.300;2023-03-22T03:14:37;18.25;;;8.95;;
41739;SDS011;27422;52.444;13.300;2023-03-22T03:17:15;16.50;;;9.07;;
41739;SDS011;27422;52.444;13.300;2023-03-22T03:20:12;18.55;;;9.38;;
41739;SDS011;27422;52.444;13.300;2023-03-22T03:28:32;17.25;;;9.05;;
41739;SDS011;27422;52.444;13.300;2023-03-22T03:33:37;18.35;;;9.52;;
41739;SDS011;27422;52.444;13.300;2023-03-22T03:36:07;17.20;;;8.95;;
41739;SDS011;27422;52.444;13.300;2023-03-22T03:38:35;16.80;;;8.88;;
41739;SDS011;27422;52.444;13.300;2023-03-22T03:43:28;13.45;;;8.23;;
41739;SDS011;27422;52.444;13.300;2023-03-22T03:45:54;16.92;;;8.70;;
41739;SDS011;27422;52.444;13.300;2023-03-22T03:48:21;18.88;;;8.95;;
41739;SDS011;27422;52.444;13.300;2023-03-22T03:50:49;16.00;;;9.05;;
41739;SDS011;27422;52.444;13.300;2023-03-22T03:53:16;18.13;;;9.93;;
41739;SDS011;27422;52.444;13.300;2023-03-22T03:55:42;17.80;;;8.82;;
41739;SDS011;27422;52.444;13.300;2023-03-22T03:58:07;18.92;;;8.82;;
41739;SDS011;27422;52.444;13.300;2023-03-22T04:00:33;15.35;;;8.43;;
41739;SDS011;27422;52.444;13.300;2023-03-22T04:03:01;17.13;;;8.95;;
41739;SDS011;27422;52.444;13.300;2023-03-22T04:05:26;17.27;;;9.07;;
41739;SDS011;27422;52.444;13.300;2023-03-22T04:07:52;16.73;;;8.93;;
41739;SDS011;27422;52.444;13.300;2023-03-22T04:10:17;17.83;;;9.48;;
41739;SDS011;27422;52.444;13.300;2023-03-22T04:12:43;16.60;;;9.35;;
41739;SDS011;27422;52.444;13.300;2023-03-22T04:15:08;17.42;;;8.48;;
41739;SDS011;27422;52.444;13.300;2023-03-22T04:17:36;17.92;;;8.52;;
41739;SDS011;27422;52.444;13.300;2023-03-22T04:20:01;17.77;;;8.73;;
41739;SDS011;27422;52.444;13.300;2023-03-22T04:22:28;16.33;;;9.03;;
41739;SDS011;27422;52.444;13.300;2023-03-22T04:24:58;17.10;;;9.13;;
41739;SDS011;27422;52.444;13.300;2023-03-22T04:27:25;18.50;;;8.97;;
41739;SDS011;27422;52.444;13.300;2023-03-22T04:29:51;18.10;;;8.48;;
41739;SDS011;27422;52.444;13.300;2023-03-22T04:32:18;15.27;;;8.35;;
41739;SDS011;27422;52.444;13.300;2023-03-22T04:34:47;17.45;;;9.57;;
41739;SDS011;27422;52.444;13.300;2023-03-22T04:37:13;16.10;;;9.13;;
41739;SDS011;27422;52.444;13.300;2023-03-22T04:39:39;14.65;;;8.02;;
41739;SDS011;27422;52.444;13.300;2023-03-22T04:42:05;16.42;;;8.98;;
41739;SDS011;27422;52.444;13.300;2023-03-22T04:44:30;16.30;;;8.38;;
41739;SDS011;27422;52.444;13.300;2023-03-22T04:46:56;15.10;;;9.10;;
41739;SDS011;27422;52.444;13.300;2023-03-22T04:49:21;18.25;;;8.65;;
41739;SDS011;27422;52.444;13.300;2023-03-22T04:51:47;15.75;;;8.48;;
41739;SDS011;27422;52.444;13.300;2023-03-22T04:54:12;17.05;;;9.40;;
41739;SDS011;27422;52.444;13.300;2023-03-22T04:56:37;17.48;;;8.45;;
41739;SDS011;27422;52.444;13.300;2023-03-22T04:59:03;13.90;;;8.07;;
41739;SDS011;27422;52.444;13.300;2023-03-22T05:01:28;16.23;;;8.68;;
41739;SDS011;27422;52.444;13.300;2023-03-22T05:03:54;16.77;;;8.55;;
41739;SDS011;27422;52.444;13.300;2023-03-22T05:06:19;15.15;;;8.40;;
41739;SDS011;27422;52.444;13.300;2023-03-22T05:08:45;16.00;;;8.52;;
41739;SDS011;27422;52.444;13.300;2023-03-22T05:11:11;17.25;;;8.65;;
41739;SDS011;27422;52.444;13.300;2023-03-22T05:13:39;14.55;;;7.93;;
41739;SDS011;27422;52.444;13.300;2023-03-22T05:16:05;15.70;;;7.80;;
41739;SDS011;27422;52.444;13.300;2023-03-22T05:18:31;15.27;;;8.77;;
41739;SDS011;27422;52.444;13.300;2023-03-22T05:20:58;15.10;;;8.48;;
41739;SDS011;27422;52.444;13.300;2023-03-22T05:23:24;13.80;;;7.90;;
41739;SDS011;27422;52.444;13.300;2023-03-22T05:25:51;16.33;;;7.90;;
41739;SDS011;27422;52.444;13.300;2023-03-22T05:28:17;18.83;;;9.00;;
41739;SDS011;27422;52.444;13.300;2023-03-22T05:30:45;17.27;;;8.25;;
41739;SDS011;27422;52.444;13.300;2023-03-22T05:33:11;15.15;;;8.27;;
41739;SDS011;27422;52.444;13.300;2023-03-22T05:35:37;15.38;;;8.48;;
41739;SDS011;27422;52.444;13.300;2023-03-22T05:38:04;17.02;;;8.75;;
41739;SDS011;27422;52.444;13.300;2023-03-22T05:40:30;14.13;;;8.15;;
41739;SDS011;27422;52.444;13.300;2023-03-22T05:42:55;17.65;;;8.50;;
41739;SDS011;27422;52.444;13.300;2023-03-22T05:45:21;15.55;;;8.20;;
41739;SDS011;27422;52.444;13.300;2023-03-22T05:47:47;17.23;;;9.02;;
41739;SDS011;27422;52.444;13.300;2023-03-22T05:50:13;17.80;;;9.05;;
41739;SDS011;27422;52.444;13.300;2023-03-22T05:52:40;17.83;;;8.35;;
41739;SDS011;27422;52.444;13.300;2023-03-22T05:55:06;17.63;;;8.88;;
41739;SDS011;27422;52.444;13.300;2023-03-22T05:57:32;14.82;;;7.80;;
41739;SDS011;27422;52.444;13.300;2023-03-22T05:59:58;17.08;;;8.93;;
41739;SDS011;27422;52.444;13.300;2023-03-22T06:02:24;15.52;;;8.25;;
41739;SDS011;27422;52.444;13.300;2023-03-22T06:04:56;15.35;;;8.43;;
41739;SDS011;27422;52.444;13.300;2023-03-22T06:07:21;16.83;;;7.97;;
41739;SDS011;27422;52.444;13.300;2023-03-22T06:09:46;16.67;;;8.88;;
41739;SDS011;27422;52.444;13.300;2023-03-22T06:12:13;18.95;;;8.75;;
41739;SDS011;27422;52.444;13.300;2023-03-22T06:14:39;16.25;;;8.38;;
41739;SDS011;27422;52.444;13.300;2023-03-22T06:17:04;17.70;;;9.15;;
41739;SDS011;27422;52.444;13.300;2023-03-22T06:19:30;16.88;;;9.18;;
41739;SDS011;27422;52.444;13.300;2023-03-22T06:21:55;17.08;;;8.98;;
41739;SDS011;27422;52.444;13.300;2023-03-22T06:24:21;18.20;;;8.82;;
41739;SDS011;27422;52.444;13.300;2023-03-22T06:26:46;16.25;;;8.65;;
41739;SDS011;27422;52.444;13.300;2023-03-22T06:29:12;15.18;;;8.20;;
41739;SDS011;27422;52.444;13.300;2023-03-22T06:31:37;15.15;;;8.05;;
41739;SDS011;27422;52.444;13.300;2023-03-22T06:34:03;16.67;;;8.52;;
41739;SDS011;27422;52.444;13.300;2023-03-22T06:36:29;15.98;;;8.70;;
41739;SDS011;27422;52.444;13.300;2023-03-22T06:38:56;16.88;;;8.60;;
41739;SDS011;27422;52.444;13.300;2023-03-22T06:41:22;17.73;;;9.18;;
41739;SDS011;27422;52.444;13.300;2023-03-22T06:43:48;15.90;;;8.75;;
41739;SDS011;27422;52.444;13.300;2023-03-22T06:46:13;15.65;;;8.45;;
41739;SDS011;27422;52.444;13.300;2023-03-22T06:48:38;14.98;;;8.20;;
41739;SDS011;27422;52.444;13.300;2023-03-22T06:51:04;15.43;;;8.18;;
41739;SDS011;27422;52.444;13.300;2023-03-22T06:53:30;14.77;;;8.10;;
41739;SDS011;27422;52.444;13.300;2023-03-22T06:55:55;15.88;;;8.40;;
41739;SDS011;27422;52.444;13.300;2023-03-22T06:58:21;15.02;;;8.60;;
41739;SDS011;27422;52.444;13.300;2023-03-22T07:00:46;16.15;;;8.82;;
41739;SDS011;27422;52.444;13.300;2023-03-22T07:03:11;16.88;;;8.88;;
41739;SDS011;27422;52.444;13.300;2023-03-22T07:05:37;14.15;;;8.27;;
41739;SDS011;27422;52.444;13.300;2023-03-22T07:08:02;16.70;;;8.07;;
41739;SDS011;27422;52.444;13.300;2023-03-22T07:10:28;15.73;;;8.77;;
41739;SDS011;27422;52.444;13.300;2023-03-22T07:12:53;14.45;;;8.35;;
41739;SDS011;27422;52.444;13.300;2023-03-22T07:15:19;18.02;;;8.93;;
41739;SDS011;27422;52.444;13.300;2023-03-22T07:17:50;15.15;;;8.35;;
41739;SDS011;27422;52.444;13.300;2023-03-22T07:20:16;14.40;;;8.45;;
41739;SDS011;27422;52.444;13.300;2023-03-22T07:22:42;14.23;;;8.35;;
41739;SDS011;27422;52.444;13.300;2023-03-22T07:25:08;14.40;;;7.85;;
41739;SDS011;27422;52.444;13.300;2023-03-22T07:27:33;16.23;;;8.40;;
41739;SDS011;27422;52.444;13.300;2023-03-22T07:29:59;16.05;;;7.82;;
41739;SDS011;27422;52.444;13.300;2023-03-22T07:32:24;14.70;;;8.23;;
41739;SDS011;27422;52.444;13.300;2023-03-22T07:34:50;14.77;;;8.00;;
41739;SDS011;27422;52.444;13.300;2023-03-22T07:37:15;14.73;;;7.75;;
41739;SDS011;27422;52.444;13.300;2023-03-22T07:39:40;13.93;;;7.70;;
41739;SDS011;27422;52.444;13.300;2023-03-22T07:42:06;13.07;;;7.65;;
41739;SDS011;27422;52.444;13.300;2023-03-22T07:44:31;12.55;;;7.30;;
41739;SDS011;27422;52.444;13.300;2023-03-22T07:46:57;13.80;;;7.90;;
41739;SDS011;27422;52.444;13.300;2023-03-22T07:49:22;13.52;;;6.88;;
41739;SDS011;27422;52.444;13.300;2023-03-22T07:51:48;11.88;;;6.47;;
41739;SDS011;27422;52.444;13.300;2023-03-22T07:54:13;13.68;;;7.43;;
41739;SDS011;27422;52.444;13.300;2023-03-22T07:56:38;14.00;;;6.63;;
41739;SDS011;27422;52.444;13.300;2023-03-22T07:59:04;15.48;;;7.43;;
41739;SDS011;27422;52.444;13.300;2023-03-22T08:01:30;14.27;;;7.80;;
41739;SDS011;27422;52.444;13.300;2023-03-22T08:03:55;13.85;;;7.28;;
41739;SDS011;27422;52.444;13.300;2023-03-22T08:06:20;11.80;;;6.38;;
41739;SDS011;27422;52.444;13.300;2023-03-22T08:08:46;13.75;;;6.28;;
41739;SDS011;27422;52.444;13.300;2023-03-22T08:11:12;13.20;;;7.03;;
41739;SDS011;27422;52.444;13.300;2023-03-22T08:13:37;13.43;;;7.55;;
41739;SDS011;27422;52.444;13.300;2023-03-22T08:16:03;13.20;;;6.30;;
41739;SDS011;27422;52.444;13.300;2023-03-22T08:18:29;13.95;;;7.15;;
41739;SDS011;27422;52.444;13.300;2023-03-22T08:20:56;15.20;;;7.50;;
41739;SDS011;27422;52.444;13.300;2023-03-22T08:23:22;11.33;;;6.33;;
41739;SDS011;27422;52.444;13.300;2023-03-22T08:25:48;12.73;;;6.70;;
41739;SDS011;27422;52.444;13.300;2023-03-22T08:28:13;12.20;;;6.18;;
41739;SDS011;27422;52.444;13.300;2023-03-22T08:30:40;12.43;;;6.78;;
41739;SDS011;27422;52.444;13.300;2023-03-22T08:33:06;10.65;;;6.57;;
41739;SDS011;27422;52.444;13.300;2023-03-22T08:35:32;17.55;;;10.75;;
41739;SDS011;27422;52.444;13.300;2023-03-22T08:37:57;54.08;;;31.10;;
41739;SDS011;27422;52.444;13.300;2023-03-22T08:40:22;17.00;;;8.65;;
41739;SDS011;27422;52.444;13.300;2023-03-22T08:42:48;29.83;;;16.70;;
41739;SDS011;27422;52.444;13.300;2023-03-22T08:45:15;12.65;;;6.97;;
41739;SDS011;27422;52.444;13.300;2023-03-22T08:47:40;9.98;;;5.60;;
41739;SDS011;27422;52.444;13.300;2023-03-22T08:50:06;17.27;;;7.97;;
41739;SDS011;27422;52.444;13.300;2023-03-22T08:52:33;22.98;;;9.65;;
41739;SDS011;27422;52.444;13.300;2023-03-22T08:54:58;9.82;;;5.95;;
41739;SDS011;27422;52.444;13.300;2023-03-22T08:57:27;10.35;;;5.88;;
41739;SDS011;27422;52.444;13.300;2023-03-22T08:59:53;9.15;;;5.40;;
41739;SDS011;27422;52.444;13.300;2023-03-22T09:02:21;10.32;;;5.90;;
41739;SDS011;27422;52.444;13.300;2023-03-22T09:04:50;9.82;;;5.55;;
41739;SDS011;27422;52.444;13.300;2023-03-22T09:07:15;12.38;;;6.47;;
41739;SDS011;27422;52.444;13.300;2023-03-22T09:09:48;8.27;;;5.28;;
41739;SDS011;27422;52.444;13.300;2023-03-22T09:12:14;14.20;;;6.65;;
41739;SDS011;27422;52.444;13.300;2023-03-22T09:14:40;9.85;;;5.70;;
41739;SDS011;27422;52.444;13.300;2023-03-22T09:17:05;9.77;;;5.90;;
41739;SDS011;27422;52.444;13.300;2023-03-22T09:19:31;8.40;;;4.70;;
41739;SDS011;27422;52.444;13.300;2023-03-22T09:21:56;8.38;;;4.88;;
41739;SDS011;27422;52.444;13.300;2023-03-22T09:24:22;10.40;;;6.10;;
41739;SDS011;27422;52.444;13.300;2023-03-22T09:26:47;8.57;;;4.78;;
41739;SDS011;27422;52.444;13.300;2023-03-22T09:29:13;11.73;;;4.90;;
41739;SDS011;27422;52.444;13.300;2023-03-22T09:31:39;16.50;;;8.40;;
41739;SDS011;27422;52.444;13.300;2023-03-22T09:34:04;5.70;;;3.85;;
41739;SDS011;27422;52.444;13.300;2023-03-22T09:36:30;10.43;;;7.28;;
41739;SDS011;27422;52.444;13.300;2023-03-22T09:38:56;15.27;;;10.15;;
41739;SDS011;27422;52.444;13.300;2023-03-22T09:43:55;8.13;;;5.03;;
41739;SDS011;27422;52.444;13.300;2023-03-22T09:46:33;9.68;;;4.82;;
41739;SDS011;27422;52.444;13.300;2023-03-22T09:49:03;8.73;;;4.35;;
41739;SDS011;27422;52.444;13.300;2023-03-22T09:51:40;8.82;;;4.90;;
41739;SDS011;27422;52.444;13.300;2023-03-22T09:54:17;8.02;;;5.20;;
41739;SDS011;27422;52.444;13.300;2023-03-22T09:56:58;7.82;;;4.35;;
41739;SDS011;27422;52.444;13.300;2023-03-22T10:02:09;7.43;;;4.60;;
41739;SDS011;27422;52.444;13.300;2023-03-22T10:10:18;8.43;;;4.60;;
41739;SDS011;27422;52.444;13.300;2023-03-22T10:15:35;7.32;;;4.50;;
41739;SDS011;27422;52.444;13.300;2023-03-22T10:18:02;6.80;;;4.15;;
41739;SDS011;27422;52.444;13.300;2023-03-22T10:23:13;9.00;;;4.07;;
41739;SDS011;27422;52.444;13.300;2023-03-22T10:25:41;7.22;;;4.00;;
41739;SDS011;27422;52.444;13.300;2023-03-22T10:28:15;8.48;;;4.20;;
41739;SDS011;27422;52.444;13.300;2023-03-22T10:30:41;8.80;;;4.35;;
41739;SDS011;27422;52.444;13.300;2023-03-22T10:33:11;9.02;;;3.97;;
41739;SDS011;27422;52.444;13.300;2023-03-22T10:35:38;7.47;;;4.00;;
41739;SDS011;27422;52.444;13.300;2023-03-22T10:38:06;7.47;;;4.10;;
41739;SDS011;27422;52.444;13.300;2023-03-22T10:40:34;7.30;;;4.07;;
41739;SDS011;27422;52.444;13.300;2023-03-22T10:43:06;8.25;;;4.25;;
41739;SDS011;27422;52.444;13.300;2023-03-22T10:45:54;6.90;;;3.42;;
41739;SDS011;27422;52.444;13.300;2023-03-22T10:54:13;6.60;;;3.58;;
41739;SDS011;27422;52.444;13.300;2023-03-22T10:56:40;5.50;;;3.20;;
41739;SDS011;27422;52.444;13.300;2023-03-22T10:59:05;5.57;;;3.53;;
41739;SDS011;27422;52.444;13.300;2023-03-22T11:01:32;5.63;;;3.13;;
41739;SDS011;27422;52.444;13.300;2023-03-22T11:04:07;7.13;;;3.67;;
41739;SDS011;27422;52.444;13.300;2023-03-22T11:06:37;6.57;;;3.65;;
41739;SDS011;27422;52.444;13.300;2023-03-22T11:09:11;6.53;;;3.45;;
41739;SDS011;27422;52.444;13.300;2023-03-22T11:11:59;8.65;;;3.97;;
41739;SDS011;27422;52.444;13.300;2023-03-22T11:16:55;7.20;;;2.97;;
41739;SDS011;27422;52.444;13.300;2023-03-22T11:19:24;5.28;;;2.80;;
41739;SDS011;27422;52.444;13.300;2023-03-22T11:21:51;5.25;;;2.60;;
41739;SDS011;27422;52.444;13.300;2023-03-22T11:24:18;6.50;;;2.88;;
41739;SDS011;27422;52.444;13.300;2023-03-22T11:27:00;5.18;;;2.25;;
41739;SDS011;27422;52.444;13.300;2023-03-22T11:29:26;4.70;;;2.42;;
41739;SDS011;27422;52.444;13.300;2023-03-22T11:34:21;5.97;;;2.40;;
41739;SDS011;27422;52.444;13.300;2023-03-22T11:36:50;5.85;;;2.40;;
41739;SDS011;27422;52.444;13.300;2023-03-22T11:39:21;5.25;;;2.72;;
41739;SDS011;27422;52.444;13.300;2023-03-22T11:41:55;5.78;;;2.85;;
41739;SDS011;27422;52.444;13.300;2023-03-22T11:44:22;4.97;;;2.45;;
41739;SDS011;27422;52.444;13.300;2023-03-22T11:46:51;4.50;;;2.50;;
41739;SDS011;27422;52.444;13.300;2023-03-22T11:49:19;4.57;;;2.20;;
41739;SDS011;27422;52.444;13.300;2023-03-22T11:51:45;6.10;;;2.67;;
41739;SDS011;27422;52.444;13.300;2023-03-22T11:54:14;4.28;;;2.20;;
41739;SDS011;27422;52.444;13.300;2023-03-22T11:56:44;5.82;;;2.30;;
41739;SDS011;27422;52.444;13.300;2023-03-22T11:59:25;4.72;;;2.20;;
41739;SDS011;27422;52.444;13.300;2023-03-22T12:02:04;5.45;;;2.40;;
41739;SDS011;27422;52.444;13.300;2023-03-22T12:04:55;4.78;;;2.47;;
41739;SDS011;27422;52.444;13.300;2023-03-22T12:07:25;4.47;;;2.28;;
41739;SDS011;27422;52.444;13.300;2023-03-22T12:12:31;5.15;;;2.38;;
41739;SDS011;27422;52.444;13.300;2023-03-22T12:15:09;4.68;;;2.20;;
41739;SDS011;27422;52.444;13.300;2023-03-22T12:17:41;5.88;;;2.50;;
41739;SDS011;27422;52.444;13.300;2023-03-22T12:20:20;4.95;;;2.67;;
41739;SDS011;27422;52.444;13.300;2023-03-22T12:22:51;5.18;;;2.80;;
41739;SDS011;27422;52.444;13.300;2023-03-22T12:25:19;4.75;;;2.30;;
41739;SDS011;27422;52.444;13.300;2023-03-22T12:27:51;5.95;;;2.50;;
41739;SDS011;27422;52.444;13.300;2023-03-22T12:30:19;4.93;;;2.05;;
41739;SDS011;27422;52.444;13.300;2023-03-22T12:32:55;5.05;;;2.75;;
41739;SDS011;27422;52.444;13.300;2023-03-22T12:35:27;6.07;;;2.92;;
41739;SDS011;27422;52.444;13.300;2023-03-22T12:37:56;6.50;;;2.65;;
41739;SDS011;27422;52.444;13.300;2023-03-22T12:40:24;5.85;;;1.85;;
41739;SDS011;27422;52.444;13.300;2023-03-22T12:45:23;4.03;;;1.67;;
41739;SDS011;27422;52.444;13.300;2023-03-22T12:47:53;4.55;;;1.92;;
41739;SDS011;27422;52.444;13.300;2023-03-22T12:50:22;3.92;;;1.70;;
41739;SDS011;27422;52.444;13.300;2023-03-22T12:52:53;4.47;;;1.75;;
41739;SDS011;27422;52.444;13.300;2023-03-22T12:55:23;4.65;;;1.75;;
41739;SDS011;27422;52.444;13.300;2023-03-22T12:57:50;4.20;;;1.70;;
41739;SDS011;27422;52.444;13.300;2023-03-22T13:00:17;3.95;;;1.50;;
41739;SDS011;27422;52.444;13.300;2023-03-22T13:02:46;3.28;;;1.30;;
41739;SDS011;27422;52.444;13.300;2023-03-22T13:05:15;3.20;;;1.20;;
41739;SDS011;27422;52.444;13.300;2023-03-22T13:15:55;3.63;;;1.30;;
41739;SDS011;27422;52.444;13.300;2023-03-22T13:21:17;6.47;;;1.60;;
41739;SDS011;27422;52.444;13.300;2023-03-22T13:28:59;3.05;;;1.30;;
41739;SDS011;27422;52.444;13.300;2023-03-22T13:31:33;3.08;;;1.40;;
41739;SDS011;27422;52.444;13.300;2023-03-22T13:34:01;3.17;;;1.20;;
41739;SDS011;27422;52.444;13.300;2023-03-22T13:36:28;3.90;;;1.20;;
41739;SDS011;27422;52.444;13.300;2023-03-22T13:38:56;3.72;;;1.60;;
41739;SDS011;27422;52.444;13.300;2023-03-22T13:43:53;3.22;;;1.20;;
41739;SDS011;27422;52.444;13.300;2023-03-22T13:53:45;4.28;;;1.40;;
41739;SDS011;27422;52.444;13.300;2023-03-22T13:58:58;2.70;;;1.30;;
41739;SDS011;27422;52.444;13.300;2023-03-22T14:03:59;2.47;;;1.17;;
41739;SDS011;27422;52.444;13.300;2023-03-22T14:06:30;4.05;;;1.33;;
41739;SDS011;27422;52.444;13.300;2023-03-22T14:09:03;4.25;;;1.30;;
41739;SDS011;27422;52.444;13.300;2023-03-22T14:11:37;3.67;;;1.40;;
41739;SDS011;27422;52.444;13.300;2023-03-22T14:14:12;5.05;;;1.20;;
41739;SDS011;27422;52.444;13.300;2023-03-22T14:16:48;2.75;;;1.10;;
41739;SDS011;27422;52.444;13.300;2023-03-22T14:19:22;4.53;;;1.00;;
41739;SDS011;27422;52.444;13.300;2023-03-22T14:21:52;2.67;;;1.20;;
41739;SDS011;27422;52.444;13.300;2023-03-22T14:24:20;4.88;;;1.20;;
41739;SDS011;27422;52.444;13.300;2023-03-22T14:26:51;4.05;;;1.00;;
41739;SDS011;27422;52.444;13.300;2023-03-22T14:29:19;4.32;;;1.35;;
41739;SDS011;27422;52.444;13.300;2023-03-22T14:31:53;3.05;;;1.17;;
41739;SDS011;27422;52.444;13.300;2023-03-22T14:34:33;4.68;;;2.28;;
41739;SDS011;27422;52.444;13.300;2023-03-22T14:37:01;3.35;;;1.13;;
41739;SDS011;27422;52.444;13.300;2023-03-22T14:39:33;3.53;;;1.38;;
41739;SDS011;27422;52.444;13.300;2023-03-22T14:42:07;2.67;;;0.90;;
41739;SDS011;27422;52.444;13.300;2023-03-22T14:44:44;2.00;;;0.88;;
41739;SDS011;27422;52.444;13.300;2023-03-22T14:47:16;4.13;;;1.15;;
41739;SDS011;27422;52.444;13.300;2023-03-22T14:49:42;2.45;;;1.00;;
41739;SDS011;27422;52.444;13.300;2023-03-22T14:52:13;2.95;;;1.02;;
41739;SDS011;27422;52.444;13.300;2023-03-22T14:54:42;3.15;;;1.00;;
41739;SDS011;27422;52.444;13.300;2023-03-22T14:57:29;2.33;;;1.00;;
41739;SDS011;27422;52.444;13.300;2023-03-22T14:59:56;4.43;;;1.20;;
41739;SDS011;27422;52.444;13.300;2023-03-22T15:02:33;3.60;;;1.30;;
41739;SDS011;27422;52.444;13.300;2023-03-22T15:07:28;2.22;;;0.85;;
41739;SDS011;27422;52.444;13.300;2023-03-22T15:10:08;2.90;;;1.05;;
41739;SDS011;27422;52.444;13.300;2023-03-22T15:12:35;1.75;;;0.85;;
41739;SDS011;27422;52.444;13.300;2023-03-22T15:15:00;2.95;;;1.00;;
41739;SDS011;27422;52.444;13.300;2023-03-22T15:17:26;2.00;;;0.70;;
41739;SDS011;27422;52.444;13.300;2023-03-22T15:19:53;2.53;;;1.00;;
41739;SDS011;27422;52.444;13.300;2023-03-22T15:22:19;4.85;;;0.90;;
41739;SDS011;27422;52.444;13.300;2023-03-22T15:25:03;3.30;;;0.82;;
41739;SDS011;27422;52.444;13.300;2023-03-22T15:27:30;3.30;;;1.00;;
41739;SDS011;27422;52.444;13.300;2023-03-22T15:29:56;3.17;;;0.95;;
41739;SDS011;27422;52.444;13.300;2023-03-22T15:32:23;3.90;;;1.23;;
41739;SDS011;27422;52.444;13.300;2023-03-22T15:34:50;2.63;;;0.95;;
41739;SDS011;27422;52.444;13.300;2023-03-22T15:39:50;2.83;;;1.13;;
41739;SDS011;27422;52.444;13.300;2023-03-22T15:42:17;2.85;;;1.17;;
41739;SDS011;27422;52.444;13.300;2023-03-22T15:44:57;3.88;;;1.00;;
41739;SDS011;27422;52.444;13.300;2023-03-22T15:47:45;3.05;;;0.93;;
41739;SDS011;27422;52.444;13.300;2023-03-22T15:50:10;2.63;;;1.00;;
41739;SDS011;27422;52.444;13.300;2023-03-22T15:52:36;3.75;;;1.20;;
41739;SDS011;27422;52.444;13.300;2023-03-22T15:55:13;3.67;;;1.30;;
41739;SDS011;27422;52.444;13.300;2023-03-22T16:05:24;3.22;;;1.40;;
41739;SDS011;27422;52.444;13.300;2023-03-22T16:07:51;3.78;;;1.20;;
41739;SDS011;27422;52.444;13.300;2023-03-22T16:10:19;3.75;;;1.38;;
41739;SDS011;27422;52.444;13.300;2023-03-22T16:12:45;4.18;;;1.50;;
41739;SDS011;27422;52.444;13.300;2023-03-22T16:15:21;2.80;;;1.15;;
41739;SDS011;27422;52.444;13.300;2023-03-22T16:17:48;5.15;;;1.80;;
41739;SDS011;27422;52.444;13.300;2023-03-22T16:20:14;4.72;;;1.45;;
41739;SDS011;27422;52.444;13.300;2023-03-22T16:22:40;2.10;;;0.80;;
41739;SDS011;27422;52.444;13.300;2023-03-22T16:25:10;3.00;;;1.10;;
41739;SDS011;27422;52.444;13.300;2023-03-22T16:27:40;2.10;;;0.90;;
41739;SDS011;27422;52.444;13.300;2023-03-22T16:30:06;3.47;;;1.05;;
41739;SDS011;27422;52.444;13.300;2023-03-22T16:32:33;2.40;;;0.95;;